Cavitt, Texas
Current Conditions -  °F | °C
As of 8:35 AM on Monday 22 Dec 2014 (Local Time) from KGOP Reporting Station
Clear Clear  
Wind Chill: 55°   Ceiling: Unl
Heat Index: 55°   Visibility: 10mi
Dew Point: 52°   Wind: 14mph
Humidity: 88%   Direction: 230°SW
Pressure: 29.68"   Gusts: 20mph
Location:  31.4557°N, 97.5706°W
Report Text: KGOP 221435Z AUTO 23012G17KT 10SM CLR 13/11 A2968 RMK AO2 PWINO
Loading
Personal Weather Stations






























Interactive Weather Map New forecast layout! Learn more

10-Day Weather Forecast

Advertisements
Track Severe Weather on mobile